createdAt,value
2023-02-01T00:01:38.889Z,92.54
2023-02-01T00:06:58.213Z,92.93
2023-02-01T00:12:17.754Z,93.83
2023-02-01T00:17:37.215Z,94.5
2023-02-01T00:22:56.646Z,94.89
2023-02-01T00:28:15.524Z,95.09
2023-02-01T00:33:34.356Z,95.31
2023-02-01T00:38:54.072Z,95.58
2023-02-01T00:44:14.375Z,95.89
2023-02-01T00:49:32.910Z,95.9
2023-02-01T00:54:51.732Z,95.83
2023-02-01T01:00:11.376Z,95.5
2023-02-01T01:05:30.497Z,95.16
2023-02-01T01:10:49.326Z,94.62
2023-02-01T01:16:17.439Z,94.2
2023-02-01T01:21:27.724Z,94.15
2023-02-01T01:26:47.131Z,94.09
2023-02-01T01:32:06.142Z,93.98
2023-02-01T01:37:24.941Z,94.43
2023-02-01T01:42:44.335Z,94.95
2023-02-01T01:48:03.805Z,95.25
2023-02-01T01:53:22.644Z,95.27
2023-02-01T01:58:41.915Z,95.46
2023-02-01T02:04:00.939Z,95.32
2023-02-01T02:09:20.228Z,95.24
2023-02-01T02:14:39.969Z,94.7
2023-02-01T02:19:59.200Z,94.26
2023-02-01T02:25:18.355Z,94.19
2023-02-01T02:30:38.002Z,94.22
2023-02-01T02:35:56.718Z,93.74
2023-02-01T02:41:16.072Z,93.75
2023-02-01T02:46:35.358Z,93.93
2023-02-01T02:51:54.766Z,93.77
2023-02-01T02:57:13.978Z,93.54
2023-02-01T03:02:33.097Z,93.85
2023-02-01T03:07:52.409Z,94.04
2023-02-01T03:13:12.109Z,94.35
2023-02-01T03:18:31.821Z,94.07
2023-02-01T03:23:50.836Z,93.52
2023-02-01T03:29:10.408Z,93.22
2023-02-01T03:34:29.289Z,93.24
2023-02-01T03:39:48.695Z,92.88
2023-02-01T03:45:08.179Z,92.82
2023-02-01T03:50:27.663Z,92.62
2023-02-01T03:55:46.746Z,92.33
2023-02-01T04:01:06.449Z,92.02
2023-02-01T04:06:25.519Z,92.18
2023-02-01T04:11:44.163Z,92.59
2023-02-01T04:17:03.423Z,92.84
2023-02-01T04:22:22.918Z,93.74
2023-02-01T04:27:42.601Z,93.67
2023-02-01T04:33:01.730Z,93.68
2023-02-01T04:38:20.512Z,93.85
2023-02-01T04:43:39.806Z,93.77
2023-02-01T04:48:58.823Z,93.69
2023-02-01T04:54:17.914Z,93.86
2023-02-01T04:59:37.075Z,94.07
2023-02-01T05:04:57.061Z,94.55
2023-02-01T05:10:16.112Z,95.06
2023-02-01T05:15:35.389Z,95.44
2023-02-01T05:20:54.998Z,95.7
2023-02-01T05:26:14.043Z,96.27
2023-02-01T05:31:33.373Z,96.63
2023-02-01T05:36:52.991Z,97.16
2023-02-01T05:42:12.529Z,97.38
2023-02-01T05:47:31.819Z,96.86
2023-02-01T05:52:51.177Z,96.27
2023-02-01T05:58:10.637Z,95.84
2023-02-01T06:03:29.557Z,95.45
2023-02-01T06:08:48.666Z,95.3
2023-02-01T06:14:08.381Z,94.55
2023-02-01T06:19:27.520Z,93.89
2023-02-01T06:24:51.577Z,93.12
2023-02-01T06:30:05.398Z,92.91
2023-02-01T06:35:25.269Z,93.36
2023-02-01T06:40:44.284Z,94.01
2023-02-01T06:46:03.557Z,94.64
2023-02-01T06:51:22.983Z,94.53
2023-02-01T06:56:42.147Z,94.14
2023-02-01T07:02:01.272Z,93.64
2023-02-01T07:07:20.268Z,93.08
2023-02-01T07:12:40.204Z,93.55
2023-02-01T07:17:59.932Z,94.3
2023-02-01T07:23:19.286Z,94.29
2023-02-01T07:28:38.209Z,94.32
2023-02-01T07:33:57.965Z,93.59
2023-02-01T07:39:17.110Z,93.47
2023-02-01T07:44:36.269Z,93.49
2023-02-01T07:49:55.220Z,93.59
2023-02-01T07:55:14.915Z,93.79
2023-02-01T08:00:34.130Z,94.52
2023-02-01T08:05:53.856Z,95.07
2023-02-01T08:11:13.021Z,95.26
2023-02-01T08:16:31.838Z,94.85
2023-02-01T08:21:51.416Z,94.43
2023-02-01T08:27:10.639Z,94.24
2023-02-01T08:32:30.126Z,93.47
2023-02-01T08:37:49.940Z,92.18
2023-02-01T08:43:09.253Z,90.88
2023-02-01T08:48:28.136Z,91.01
2023-02-01T08:48:52.740Z,88.68
2023-02-01T08:54:11.671Z,89.92
2023-02-01T08:59:31.329Z,87.12
2023-02-01T09:04:50.774Z,87.15
2023-02-01T09:10:10.418Z,88.05
2023-02-01T09:15:29.904Z,86.41
2023-02-01T09:20:48.763Z,84.67
2023-02-01T09:26:08.191Z,85.42
2023-02-01T09:31:28.061Z,84.3
2023-02-01T09:36:47.548Z,85.2
2023-02-01T09:42:06.303Z,85.23
2023-02-01T09:47:25.135Z,83.61
2023-02-01T09:52:45.371Z,84.37
2023-02-01T09:59:19.522Z,83.28
2023-02-01T10:03:24.132Z,83.37
2023-02-01T10:11:57.236Z,82.33
2023-02-01T10:14:02.015Z,80.96
2023-02-01T10:19:21.221Z,82.44
2023-02-01T10:24:40.059Z,81.43
2023-02-01T10:29:59.167Z,81.4
2023-02-01T10:35:18.535Z,81.8
2023-02-01T10:40:37.888Z,82.03
2023-02-01T10:45:56.727Z,83.23
2023-02-01T10:51:15.150Z,82.68
2023-02-01T10:56:33.772Z,84.39
2023-02-01T11:01:52.138Z,83.58
2023-02-01T11:07:11.392Z,83.64
2023-02-01T11:12:30.408Z,83.5
2023-02-01T11:17:49.140Z,81.85
2023-02-01T11:23:08.407Z,81.72
2023-02-01T11:28:28.581Z,82.15
2023-02-01T11:33:56.915Z,82.17
2023-02-01T11:39:06.274Z,83.14
2023-02-01T11:44:27.000Z,83.29
2023-02-01T11:49:45.755Z,82.89
2023-02-01T11:55:05.022Z,83.65
2023-02-01T12:00:24.459Z,83.96
2023-02-01T12:05:43.856Z,83.13
2023-02-01T12:11:03.248Z,82.1
2023-02-01T12:16:22.829Z,82.56
2023-02-01T12:21:41.774Z,83.94
2023-02-01T12:27:01.406Z,85.83
2023-02-01T12:32:20.443Z,85.88
2023-02-01T12:37:39.378Z,84.99
2023-02-01T12:42:59.353Z,83.73
2023-02-01T12:48:18.949Z,83.63
2023-02-01T12:53:38.185Z,82.35
2023-02-01T12:58:57.283Z,81.74
2023-02-01T13:04:16.613Z,81.31
2023-02-01T13:09:35.590Z,81.74
2023-02-01T13:14:54.550Z,81.06
2023-02-01T13:20:13.915Z,81.11
2023-02-01T13:25:33.369Z,81.81
2023-02-01T13:30:52.282Z,81.53
2023-02-01T13:36:11.404Z,83.56
2023-02-01T13:41:30.828Z,86.46
2023-02-01T13:46:52.418Z,87.89
2023-02-01T13:52:09.435Z,87.85
2023-02-01T13:57:28.498Z,87.28
2023-02-01T14:02:47.580Z,85.32
2023-02-01T14:08:07.302Z,82.97
2023-02-01T14:13:27.225Z,83.72
2023-02-01T14:18:45.991Z,83.04
2023-02-01T14:24:05.049Z,82.01
2023-02-01T14:29:24.264Z,81.1
2023-02-01T14:34:43.581Z,81.17
2023-02-01T14:40:02.115Z,81.43
2023-02-01T14:45:21.335Z,81.87
2023-02-01T14:50:40.657Z,81.64
2023-02-01T14:55:59.379Z,80.47
2023-02-01T15:01:19.084Z,79.79
2023-02-01T15:06:37.828Z,79.16
2023-02-01T15:11:57.625Z,79.11
2023-02-01T15:17:17.411Z,78.83
2023-02-01T15:22:36.370Z,78.19
2023-02-01T15:27:55.443Z,78.33
2023-02-01T15:33:14.793Z,78.24
2023-02-01T15:38:34.023Z,78.12
2023-02-01T15:43:53.186Z,78.25
2023-02-01T15:49:12.426Z,77.81
2023-02-01T15:54:32.255Z,77.07
2023-02-01T15:59:51.163Z,77.56
2023-02-01T16:05:10.912Z,77.14
2023-02-01T16:10:29.932Z,77.42
2023-02-01T16:15:48.772Z,77.25
2023-02-01T16:21:08.390Z,77.08
2023-02-01T16:26:27.407Z,76.64
2023-02-01T16:31:46.599Z,76.94
2023-02-01T16:37:06.269Z,76.76
2023-02-01T16:42:25.368Z,76.76
2023-02-01T16:47:44.720Z,76.37
2023-02-01T16:53:04.519Z,76.1
2023-02-01T16:58:24.152Z,76.61
2023-02-01T17:03:44.058Z,76.08
2023-02-01T17:09:03.497Z,76.18
2023-02-01T17:14:22.894Z,75.8
2023-02-01T17:19:42.181Z,75.55
2023-02-01T17:25:01.529Z,75.57
2023-02-01T17:30:20.568Z,75.78
2023-02-01T17:35:40.068Z,75.81
2023-02-01T17:40:59.079Z,76.37
2023-02-01T17:46:18.180Z,76.3
2023-02-01T17:51:37.837Z,76.44
2023-02-01T17:56:56.954Z,76.29
2023-02-01T18:02:16.181Z,76.48
2023-02-01T18:07:35.270Z,76.36
2023-02-01T18:12:54.746Z,76.69
2023-02-01T18:18:14.395Z,76.97
2023-02-01T18:23:33.217Z,76.97
2023-02-01T18:28:52.678Z,76.83
2023-02-01T18:34:11.754Z,77.69
2023-02-01T18:39:30.626Z,77.49
2023-02-01T18:44:49.547Z,78.16
2023-02-01T18:50:08.693Z,78.05
2023-02-01T18:55:27.652Z,78.46
2023-02-01T19:00:46.978Z,78.73
2023-02-01T19:06:13.998Z,78.67
2023-02-01T19:11:25.232Z,78.69
2023-02-01T19:16:44.974Z,78.64
2023-02-01T19:22:04.176Z,78.23
2023-02-01T19:27:32.879Z,78.39
2023-02-01T19:32:43.333Z,78.28
2023-02-01T19:38:02.751Z,78.41
2023-02-01T19:43:21.616Z,79.12
2023-02-01T19:48:40.851Z,79
2023-02-01T19:54:00.497Z,78.94
2023-02-01T19:59:20.436Z,78.79
2023-02-01T20:04:38.061Z,78.1
2023-02-01T20:09:56.959Z,78.16
2023-02-01T20:15:16.576Z,78.3
2023-02-01T20:20:35.615Z,78.51
2023-02-01T20:25:55.089Z,78.4
2023-02-01T20:31:14.758Z,78.35
2023-02-01T20:36:33.864Z,77.91
2023-02-01T20:41:53.591Z,78.15
2023-02-01T20:47:12.613Z,79.5
2023-02-01T20:52:32.401Z,80.03
2023-02-01T20:57:50.112Z,79.92
2023-02-01T21:03:09.598Z,80.58
2023-02-01T21:08:28.561Z,81.47
2023-02-01T21:13:47.867Z,81.58
2023-02-01T21:19:07.697Z,80.55
2023-02-01T21:24:27.181Z,80.24
2023-02-01T21:29:46.217Z,79.85
2023-02-01T21:35:05.802Z,79.53
2023-02-01T21:40:25.344Z,79.07
2023-02-01T21:45:54.567Z,79.26
2023-02-01T21:51:04.308Z,79.12
2023-02-01T21:56:23.925Z,79.22
2023-02-01T22:01:43.402Z,79.01
2023-02-01T22:07:02.497Z,79.25
2023-02-01T22:12:22.208Z,79.12
2023-02-01T22:17:41.539Z,79.01
2023-02-01T22:23:00.324Z,79.31
2023-02-01T22:28:31.445Z,79.1
2023-02-01T22:33:39.383Z,78.48
2023-02-01T22:38:58.837Z,78.33
2023-02-01T22:44:18.590Z,78.99
2023-02-01T22:49:38.177Z,78.89
2023-02-01T22:54:57.441Z,78.66
2023-02-01T23:00:16.778Z,79.22
2023-02-01T23:05:36.329Z,79.71
2023-02-01T23:10:56.923Z,80.26
2023-02-01T23:16:14.988Z,81.04
2023-02-01T23:21:34.617Z,81.15
2023-02-01T23:26:53.844Z,81.62
2023-02-01T23:32:12.711Z,81.91
2023-02-01T23:37:32.464Z,82.33
2023-02-01T23:42:52.053Z,82.78
2023-02-01T23:48:11.804Z,83.37
2023-02-01T23:53:31.083Z,84.86
2023-02-01T23:58:49.862Z,86.38
